Lutselk'e Airport
CYLK : now visible

Airfield :











YOU CAN JOIN US ON...

 
LOGIN :

Register | Disclaimer

   EN    FR    IT 

 









Legend :    VFR   Marginal VFR   IFR   Intensive IFR   Very Intensive IFR
Visi :
Ceiling :
>= 8 km
>= 3000ft
5 to 8 km
1000 to 3000 ft
1500m to 5 km
500 to 1000 ft
800 to 1500m
200 to 500 ft
< 800m
< 200 ft
Symbols :   Thunderstorms  Fog  Heavy snow  Heavy precipitations  Wind > 20 kt






- Airport Elevation : 596 ft
- IATA code : YSG


CYLK - Lutselk'e

CURRENT METAR :
  • 201600Z 06010KT 25SM FEW180 06/M02 A3015 RMK AC1 AC TR HZ PRSNT SLP222

EXPIRED METARs :
  • 201500Z 06011KT 25SM SKC 04/M02 A3016 RMK SLP227
  • 201400Z 06008KT 25SM SKC 04/M01 A3017 RMK SLP230

TAF TAF CYLK
Valid from the 20 at 16:00 until the 21 at 00:00 UTC


201540Z 2016/2024 06010KT P6SM SKC RMK NXT FCST BY 201900Z
CZEG FIR / North America



MET'MAP, your aeronautical weather chart ! - Copyright ORBIFLY December 2007 - Disclaimer

ORBIFLY MET'MAP TEAM :

Programming & Development : Alexandra Zaïnal
Original concept : Baudouin d'Aumeries
Technical & hardware support : Manuel Goepfert
Assistance : Marc-Olivier Méhu




SOURCES & CREDITS :

   NOAA       Earth
Advisory